createdAt,value
2022-08-25T00:00:16.378Z,101251.52
2022-08-25T00:04:13.204Z,101249.16
2022-08-25T00:08:01.386Z,101237.88
2022-08-25T00:11:41.945Z,101248.96
2022-08-25T00:15:29.820Z,101242.95
2022-08-25T00:19:15.962Z,101238.64
2022-08-25T00:22:55.904Z,101238.11
2022-08-25T00:26:37.071Z,101235.78
2022-08-25T00:30:23.561Z,101237.44
2022-08-25T00:34:04.012Z,101238.70
2022-08-25T00:37:53.935Z,101241.13
2022-08-25T00:41:41.431Z,101234.64
2022-08-25T00:45:29.088Z,101236.66
2022-08-25T00:49:22.474Z,101245.05
2022-08-25T00:53:12.808Z,101245.69
2022-08-25T00:57:00.433Z,101248.51
2022-08-25T01:00:51.025Z,101255.60
2022-08-25T01:04:31.253Z,101256.05
2022-08-25T01:08:19.237Z,101260.02
2022-08-25T01:12:00.833Z,101261.14
2022-08-25T01:15:41.057Z,101258.91
2022-08-25T01:19:28.750Z,101255.79
2022-08-25T01:23:16.423Z,101259.38
2022-08-25T01:27:03.031Z,101265.08
2022-08-25T01:30:50.772Z,101270.19
2022-08-25T01:34:38.148Z,101273.38
2022-08-25T01:38:25.827Z,101266.27
2022-08-25T01:42:12.023Z,101261.05
2022-08-25T01:45:53.322Z,101263.85
2022-08-25T01:49:43.368Z,101264.45
2022-08-25T01:53:40.295Z,101268.95
2022-08-25T01:57:27.800Z,101267.02
2022-08-25T02:01:15.808Z,101272.48
2022-08-25T02:05:03.451Z,101271.13
2022-08-25T02:08:52.161Z,101269.09
2022-08-25T02:12:39.695Z,101269.23
2022-08-25T02:16:19.433Z,101258.40
2022-08-25T02:20:06.938Z,101261.86
2022-08-25T02:23:54.439Z,101257.52
2022-08-25T02:27:40.568Z,101254.40
2022-08-25T02:31:20.093Z,101255.34
2022-08-25T02:35:06.154Z,101258.39
2022-08-25T02:38:53.736Z,101258.00
2022-08-25T02:42:42.774Z,101258.38
2022-08-25T02:46:30.371Z,101253.73
2022-08-25T02:50:18.049Z,101252.90
2022-08-25T02:54:05.635Z,101246.77
2022-08-25T02:57:52.238Z,101246.41
2022-08-25T03:01:31.365Z,101247.98
2022-08-25T03:05:19.420Z,101243.66
2022-08-25T03:08:59.601Z,101245.12
2022-08-25T03:12:47.245Z,101236.30
2022-08-25T03:16:34.520Z,101231.30
2022-08-25T03:20:12.647Z,101226.05
2022-08-25T03:24:00.134Z,101227.70
2022-08-25T03:27:47.981Z,101227.32
2022-08-25T03:31:28.101Z,101233.36
2022-08-25T03:35:15.687Z,101232.86
2022-08-25T03:39:03.208Z,101242.81
2022-08-25T03:42:50.940Z,101245.45
2022-08-25T03:46:41.298Z,101243.37
2022-08-25T03:50:28.948Z,101240.36
2022-08-25T03:54:16.987Z,101235.99
2022-08-25T03:58:04.816Z,101240.12
2022-08-25T04:01:54.779Z,101246.86
2022-08-25T04:05:39.313Z,101245.33
2022-08-25T04:09:26.626Z,101245.44
2022-08-25T04:13:06.613Z,101247.30
2022-08-25T04:16:39.546Z,101252.91
2022-08-25T04:20:20.013Z,101254.52
2022-08-25T04:23:57.502Z,101258.85
2022-08-25T04:27:44.886Z,101260.99
2022-08-25T04:31:24.389Z,101256.73
2022-08-25T04:34:47.400Z,101252.98
2022-08-25T04:38:16.832Z,101250.58
2022-08-25T04:42:04.492Z,101254.89
2022-08-25T04:45:41.930Z,101254.48
2022-08-25T04:48:43.594Z,101255.40
2022-08-25T04:52:16.359Z,101252.81
2022-08-25T04:55:45.793Z,101260.67
2022-08-25T04:59:34.975Z,101249.98
2022-08-25T05:03:22.668Z,101246.20
2022-08-25T05:07:00.235Z,101253.27
2022-08-25T05:10:47.555Z,101256.70
2022-08-25T05:14:26.310Z,101255.70
2022-08-25T05:18:14.461Z,101255.66
2022-08-25T05:22:02.002Z,101253.59
2022-08-25T05:25:49.534Z,101256.75
2022-08-25T05:29:37.242Z,101250.95
2022-08-25T05:33:24.680Z,101251.15
2022-08-25T05:37:12.757Z,101246.75
2022-08-25T05:40:53.171Z,101248.41
2022-08-25T05:44:40.839Z,101249.59
2022-08-25T05:48:28.480Z,101248.09
2022-08-25T05:52:20.051Z,101243.59
2022-08-25T05:56:06.986Z,101245.23
2022-08-25T05:59:37.799Z,101249.37
2022-08-25T06:03:21.025Z,101244.70
2022-08-25T06:06:51.566Z,101254.64
2022-08-25T06:10:31.761Z,101263.27
2022-08-25T06:14:12.910Z,101261.92
2022-08-25T06:17:41.507Z,101265.79
2022-08-25T06:21:29.613Z,101263.85
2022-08-25T06:25:17.410Z,101259.66
2022-08-25T06:29:05.614Z,101260.77
2022-08-25T06:32:53.778Z,101270.44
2022-08-25T06:36:41.700Z,101261.34
2022-08-25T06:40:29.516Z,101262.10
2022-08-25T06:44:17.159Z,101268.23
2022-08-25T06:48:05.031Z,101269.01
2022-08-25T06:51:52.731Z,101266.73
2022-08-25T06:55:40.268Z,101267.30
2022-08-25T06:59:32.011Z,101279.23
2022-08-25T07:03:27.493Z,101272.79
2022-08-25T07:07:15.470Z,101265.88
2022-08-25T07:11:03.449Z,101265.16
2022-08-25T07:15:09.996Z,101264.42
2022-08-25T07:19:00.245Z,101272.27
2022-08-25T07:22:48.007Z,101268.36
2022-08-25T07:26:38.501Z,101267.62
2022-08-25T07:30:26.773Z,101264.52
2022-08-25T07:34:05.714Z,101267.30
2022-08-25T07:37:52.186Z,101265.86
2022-08-25T07:41:34.012Z,101269.77
2022-08-25T07:45:21.810Z,101273.29
2022-08-25T07:49:09.139Z,101276.90
2022-08-25T07:53:04.308Z,101282.60
2022-08-25T07:56:52.309Z,101280.72
2022-08-25T08:00:39.538Z,101278.29
2022-08-25T08:04:29.921Z,101278.94
2022-08-25T08:08:19.027Z,101277.65
2022-08-25T08:12:09.670Z,101271.63
2022-08-25T08:15:57.357Z,101273.41
2022-08-25T08:19:45.496Z,101275.48
2022-08-25T08:23:33.215Z,101278.07
2022-08-25T08:27:20.732Z,101267.76
2022-08-25T08:31:10.639Z,101267.13
2022-08-25T08:34:57.038Z,101273.57
2022-08-25T08:38:30.621Z,101272.94
2022-08-25T08:42:42.718Z,101277.58
2022-08-25T08:46:39.534Z,101273.55
2022-08-25T08:50:50.647Z,101270.32
2022-08-25T08:54:39.296Z,101267.45
2022-08-25T08:58:29.072Z,101262.16
2022-08-25T09:02:16.786Z,101260.56
2022-08-25T09:06:24.657Z,101256.11
2022-08-25T09:10:12.182Z,101249.55
2022-08-25T09:14:08.735Z,101252.54
2022-08-25T09:18:02.289Z,101248.20
2022-08-25T09:21:47.155Z,101246.16
2022-08-25T09:25:53.153Z,101245.44
2022-08-25T09:29:42.037Z,101239.17
2022-08-25T09:33:35.522Z,101237.52
2022-08-25T09:37:23.904Z,101233.66
2022-08-25T09:41:11.028Z,101226.77
2022-08-25T09:45:05.367Z,101225.55
2022-08-25T09:49:02.275Z,101223.35
2022-08-25T09:53:17.257Z,101216.55
2022-08-25T09:57:05.411Z,101216.23
2022-08-25T10:01:02.766Z,101218.96
2022-08-25T10:04:53.343Z,101217.36
2022-08-25T10:08:37.090Z,101208.71
2022-08-25T10:12:27.911Z,101203.92
2022-08-25T10:16:20.479Z,101196.66
2022-08-25T10:20:12.783Z,101194.08
2022-08-25T10:23:51.950Z,101186.10
2022-08-25T10:27:35.681Z,101182.25
2022-08-25T10:31:34.966Z,101174.98
2022-08-25T10:35:34.664Z,101176.52
2022-08-25T10:39:33.849Z,101174.30
2022-08-25T10:43:25.754Z,101166.39
2022-08-25T10:47:16.932Z,101164.66
2022-08-25T10:51:04.900Z,101157.48
2022-08-25T10:55:11.471Z,101157.39
2022-08-25T10:59:22.817Z,101145.02
2022-08-25T11:03:08.233Z,101139.63
2022-08-25T11:06:56.153Z,101134.81
2022-08-25T11:10:45.357Z,101138.78
2022-08-25T11:14:37.111Z,101131.70
2022-08-25T11:18:33.702Z,101127.69
2022-08-25T11:22:39.339Z,101121.08
2022-08-25T11:26:14.453Z,101126.04
2022-08-25T11:30:01.368Z,101121.86
2022-08-25T11:33:53.125Z,101119.92
2022-08-25T11:37:41.165Z,101113.02
2022-08-25T11:41:49.074Z,101115.23
2022-08-25T11:45:33.839Z,101112.55
2022-08-25T11:49:21.924Z,101099.06
2022-08-25T11:52:55.822Z,101102.94
2022-08-25T11:56:49.219Z,101101.59
2022-08-25T12:00:52.372Z,101098.36
2022-08-25T12:04:55.177Z,101095.58
2022-08-25T12:08:52.507Z,101092.17
2022-08-25T12:12:40.580Z,101084.27
2022-08-25T12:16:24.325Z,101076.65
2022-08-25T12:20:30.783Z,101077.84
2022-08-25T12:24:18.825Z,101082.14
2022-08-25T12:28:09.516Z,101074.85
2022-08-25T12:31:56.368Z,101074.03
2022-08-25T12:36:05.402Z,101082.32
2022-08-25T12:39:55.853Z,101077.47
2022-08-25T12:43:46.880Z,101072.92
2022-08-25T12:47:33.038Z,101070.42
2022-08-25T12:51:20.519Z,101070.52
2022-08-25T12:55:04.122Z,101060.28
2022-08-25T12:59:02.235Z,101060.34
2022-08-25T13:03:00.843Z,101062.18
2022-08-25T13:06:54.324Z,101071.11
2022-08-25T13:10:57.175Z,101063.73
2022-08-25T13:14:57.416Z,101054.92
2022-08-25T13:18:53.327Z,101047.52
2022-08-25T13:22:38.361Z,101051.61
2022-08-25T13:26:23.377Z,101053.90
2022-08-25T13:30:16.149Z,101052.63
2022-08-25T13:34:19.359Z,101048.81
2022-08-25T13:38:06.990Z,101048.27
2022-08-25T13:41:57.415Z,101047.58
2022-08-25T13:45:41.432Z,101043.55
2022-08-25T13:49:32.450Z,101040.55
2022-08-25T13:53:30.404Z,101038.08
2022-08-25T13:57:30.878Z,101037.67
2022-08-25T14:01:47.770Z,101037.30
2022-08-25T14:05:40.384Z,101018.77
2022-08-25T14:09:35.514Z,101024.36
2022-08-25T14:13:31.368Z,101017.55
2022-08-25T14:17:36.334Z,101017.35
2022-08-25T14:21:26.263Z,101010.21
2022-08-25T14:24:46.693Z,101007.39
2022-08-25T14:28:07.274Z,101017.70
2022-08-25T14:31:55.023Z,101008.97
2022-08-25T14:35:41.849Z,101004.66
2022-08-25T14:39:11.149Z,101001.59
2022-08-25T14:43:02.426Z,101000.84
2022-08-25T14:46:29.303Z,100995.95
2022-08-25T14:50:20.834Z,100991.42
2022-08-25T14:54:09.054Z,100986.98
2022-08-25T14:57:59.804Z,100973.49
2022-08-25T15:01:50.102Z,100971.69
2022-08-25T15:05:41.523Z,100975.06
2022-08-25T15:09:33.291Z,100970.81
2022-08-25T15:13:21.683Z,100969.63
2022-08-25T15:17:05.061Z,100963.56
2022-08-25T15:20:54.949Z,100967.44
2022-08-25T15:24:43.094Z,100961.23
2022-08-25T15:28:32.642Z,100964.29
2022-08-25T15:32:21.068Z,100963.02
2022-08-25T15:36:06.682Z,100955.80
2022-08-25T15:39:54.998Z,100948.94
2022-08-25T15:43:44.970Z,100953.96
2022-08-25T15:47:25.874Z,100952.64
2022-08-25T15:51:13.593Z,100946.09
2022-08-25T15:54:01.753Z,100945.02
2022-08-25T15:57:29.524Z,100941.55
2022-08-25T16:01:16.395Z,100941.77
2022-08-25T16:05:07.160Z,100931.77
2022-08-25T16:08:55.420Z,100936.95
2022-08-25T16:12:37.955Z,100931.58
2022-08-25T16:16:28.284Z,100931.14
2022-08-25T16:20:15.992Z,100931.05
2022-08-25T16:24:07.436Z,100925.56
2022-08-25T16:27:48.388Z,100923.23
2022-08-25T16:31:33.703Z,100924.09
2022-08-25T16:35:21.818Z,100918.50
2022-08-25T16:39:09.867Z,100915.29
2022-08-25T16:42:37.776Z,100914.04
2022-08-25T16:46:13.914Z,100911.48
2022-08-25T16:50:02.039Z,100913.73
2022-08-25T16:53:48.995Z,100912.36
2022-08-25T16:57:37.115Z,100909.18
2022-08-25T17:01:25.235Z,100909.11
2022-08-25T17:05:13.417Z,100909.80
2022-08-25T17:08:53.477Z,100905.36
2022-08-25T17:12:41.333Z,100904.92
2022-08-25T17:16:29.035Z,100899.70
2022-08-25T17:20:19.217Z,100899.90
2022-08-25T17:24:07.176Z,100904.97
2022-08-25T17:27:32.259Z,100904.36
2022-08-25T17:31:20.003Z,100907.70
2022-08-25T17:35:01.042Z,100904.95
2022-08-25T17:38:25.551Z,100908.48
2022-08-25T17:42:02.636Z,100909.10
2022-08-25T17:45:50.420Z,100913.95
2022-08-25T17:49:30.077Z,100911.13
2022-08-25T17:53:17.742Z,100909.11
2022-08-25T17:56:59.140Z,100902.63
2022-08-25T18:00:47.286Z,100903.98
2022-08-25T18:04:35.511Z,100909.50
2022-08-25T18:08:32.315Z,100908.55
2022-08-25T18:12:23.247Z,100910.55
2022-08-25T18:15:45.435Z,100912.14
2022-08-25T18:19:29.808Z,100915.05
2022-08-25T18:23:17.410Z,100916.30
2022-08-25T18:26:56.176Z,100916.80
2022-08-25T18:30:26.258Z,100916.23
2022-08-25T18:34:15.490Z,100921.71
2022-08-25T18:37:55.000Z,100927.55
2022-08-25T18:41:32.389Z,100923.77
2022-08-25T18:45:20.611Z,100927.48
2022-08-25T18:49:07.534Z,100932.38
2022-08-25T18:52:12.791Z,100933.88
2022-08-25T18:56:03.797Z,100936.39
2022-08-25T18:59:42.753Z,100940.20
2022-08-25T19:02:30.510Z,100938.14
2022-08-25T19:06:05.323Z,100937.80
2022-08-25T19:09:10.352Z,100939.71
2022-08-25T19:12:36.912Z,100937.19
2022-08-25T19:16:14.055Z,100942.56
2022-08-25T19:20:11.237Z,100941.50
2022-08-25T19:23:27.289Z,100937.52
2022-08-25T19:27:15.728Z,100937.31
2022-08-25T19:30:54.467Z,100939.63
2022-08-25T19:34:33.825Z,100936.25
2022-08-25T19:38:33.586Z,100932.88
2022-08-25T19:42:36.792Z,100928.52
2022-08-25T19:46:21.077Z,100923.95
2022-08-25T19:50:07.622Z,100920.75
2022-08-25T19:53:57.176Z,100917.52
2022-08-25T19:57:42.827Z,100915.49
2022-08-25T20:01:18.191Z,100917.67
2022-08-25T20:04:56.183Z,100913.25
2022-08-25T20:08:44.443Z,100906.70
2022-08-25T20:12:32.449Z,100912.67
2022-08-25T20:16:20.360Z,100911.91
2022-08-25T20:20:08.471Z,100912.91
2022-08-25T20:23:45.133Z,100920.44
2022-08-25T20:27:33.041Z,100918.02
2022-08-25T20:31:14.621Z,100918.55
2022-08-25T20:34:58.356Z,100921.06
2022-08-25T20:38:46.275Z,100918.86
2022-08-25T20:42:26.282Z,100921.25
2022-08-25T20:46:14.941Z,100923.41
2022-08-25T20:50:07.006Z,100925.67
2022-08-25T20:53:46.817Z,100928.94
2022-08-25T20:57:33.900Z,100931.29
2022-08-25T21:01:23.074Z,100933.29
2022-08-25T21:05:11.112Z,100930.38
2022-08-25T21:09:00.559Z,100924.08
2022-08-25T21:12:48.479Z,100932.31
2022-08-25T21:16:41.051Z,100926.44
2022-08-25T21:20:30.118Z,100927.43
2022-08-25T21:24:16.685Z,100929.67
2022-08-25T21:27:56.864Z,100933.83
2022-08-25T21:31:41.050Z,100931.25
2022-08-25T21:35:34.598Z,100926.83
2022-08-25T21:39:22.367Z,100927.74
2022-08-25T21:43:02.523Z,100927.64
2022-08-25T21:46:53.934Z,100924.33
2022-08-25T21:50:47.501Z,100921.77
2022-08-25T21:54:35.206Z,100919.95
2022-08-25T21:58:22.807Z,100917.42
2022-08-25T22:02:10.735Z,100917.83
2022-08-25T22:05:49.105Z,100910.10
2022-08-25T22:09:36.762Z,100912.77
2022-08-25T22:13:25.180Z,100913.52
2022-08-25T22:17:16.506Z,100913.08
2022-08-25T22:20:57.804Z,100907.02
2022-08-25T22:24:45.741Z,100900.42
2022-08-25T22:28:24.294Z,100895.70
2022-08-25T22:32:13.843Z,100895.69
2022-08-25T22:36:01.713Z,100893.08
2022-08-25T22:39:50.383Z,100888.85
2022-08-25T22:43:30.824Z,100888.87
2022-08-25T22:47:19.417Z,100883.77
2022-08-25T22:51:07.260Z,100883.77
2022-08-25T22:54:52.575Z,100883.74
2022-08-25T22:58:39.561Z,100878.81
2022-08-25T23:02:26.003Z,100878.53
2022-08-25T23:06:22.221Z,100876.96
2022-08-25T23:10:12.926Z,100878.66
2022-08-25T23:14:00.071Z,100876.29
2022-08-25T23:17:39.682Z,100876.02
2022-08-25T23:21:26.079Z,100870.67
2022-08-25T23:25:15.143Z,100868.98
2022-08-25T23:29:07.799Z,100864.20
2022-08-25T23:33:06.441Z,100866.61
2022-08-25T23:37:03.680Z,100863.54
2022-08-25T23:40:51.541Z,100854.09
2022-08-25T23:44:25.701Z,100852.89
2022-08-25T23:48:13.490Z,100853.09
2022-08-25T23:52:08.003Z,100846.58
2022-08-25T23:55:56.172Z,100847.02
2022-08-25T23:59:44.528Z,100844.62
